sensor_id;sensor_type;location;lat;lon;timestamp;P1;durP1;ratioP1;P2;durP2;ratioP2
40433;SDS011;26146;51.114;5.654;2022-11-15T00:00:39;19.00;;;9.50;;
40433;SDS011;26146;51.114;5.654;2022-11-15T00:04:40;19.77;;;9.03;;
40433;SDS011;26146;51.114;5.654;2022-11-15T00:08:41;15.90;;;8.33;;
40433;SDS011;26146;51.114;5.654;2022-11-15T00:12:42;19.77;;;8.60;;
40433;SDS011;26146;51.114;5.654;2022-11-15T00:16:42;16.40;;;8.30;;
40433;SDS011;26146;51.114;5.654;2022-11-15T00:20:44;18.02;;;8.77;;
40433;SDS011;26146;51.114;5.654;2022-11-15T00:24:45;19.13;;;8.80;;
40433;SDS011;26146;51.114;5.654;2022-11-15T00:28:48;18.43;;;8.23;;
40433;SDS011;26146;51.114;5.654;2022-11-15T00:32:51;16.93;;;8.47;;
40433;SDS011;26146;51.114;5.654;2022-11-15T00:36:52;17.65;;;8.30;;
40433;SDS011;26146;51.114;5.654;2022-11-15T00:40:53;17.10;;;8.40;;
40433;SDS011;26146;51.114;5.654;2022-11-15T00:44:54;17.00;;;8.43;;
40433;SDS011;26146;51.114;5.654;2022-11-15T00:48:55;17.17;;;8.07;;
40433;SDS011;26146;51.114;5.654;2022-11-15T00:52:56;18.13;;;8.07;;
40433;SDS011;26146;51.114;5.654;2022-11-15T00:56:57;14.40;;;7.43;;
40433;SDS011;26146;51.114;5.654;2022-11-15T01:01:07;16.13;;;8.05;;
40433;SDS011;26146;51.114;5.654;2022-11-15T01:05:10;15.88;;;8.07;;
40433;SDS011;26146;51.114;5.654;2022-11-15T01:09:11;17.08;;;7.75;;
40433;SDS011;26146;51.114;5.654;2022-11-15T01:13:11;14.20;;;7.53;;
40433;SDS011;26146;51.114;5.654;2022-11-15T01:17:12;16.65;;;7.60;;
40433;SDS011;26146;51.114;5.654;2022-11-15T01:21:16;14.10;;;7.22;;
40433;SDS011;26146;51.114;5.654;2022-11-15T01:25:18;16.87;;;8.13;;
40433;SDS011;26146;51.114;5.654;2022-11-15T01:29:19;14.80;;;7.88;;
40433;SDS011;26146;51.114;5.654;2022-11-15T01:33:20;15.38;;;7.30;;
40433;SDS011;26146;51.114;5.654;2022-11-15T01:37:21;17.63;;;8.30;;
40433;SDS011;26146;51.114;5.654;2022-11-15T01:41:24;15.70;;;8.13;;
40433;SDS011;26146;51.114;5.654;2022-11-15T01:45:27;16.40;;;8.52;;
40433;SDS011;26146;51.114;5.654;2022-11-15T01:49:28;16.38;;;8.20;;
40433;SDS011;26146;51.114;5.654;2022-11-15T01:53:32;16.10;;;7.85;;
40433;SDS011;26146;51.114;5.654;2022-11-15T01:57:37;15.27;;;7.93;;
40433;SDS011;26146;51.114;5.654;2022-11-15T02:01:39;13.55;;;7.07;;
40433;SDS011;26146;51.114;5.654;2022-11-15T02:05:41;16.13;;;7.50;;
40433;SDS011;26146;51.114;5.654;2022-11-15T02:09:44;15.55;;;7.97;;
40433;SDS011;26146;51.114;5.654;2022-11-15T02:13:46;13.73;;;7.30;;
40433;SDS011;26146;51.114;5.654;2022-11-15T02:31:21;14.00;;;6.97;;
40433;SDS011;26146;51.114;5.654;2022-11-15T02:44:16;13.30;;;7.00;;
40433;SDS011;26146;51.114;5.654;2022-11-15T02:48:24;13.88;;;6.85;;
40433;SDS011;26146;51.114;5.654;2022-11-15T02:52:26;13.23;;;6.95;;
40433;SDS011;26146;51.114;5.654;2022-11-15T02:56:27;16.45;;;6.55;;
40433;SDS011;26146;51.114;5.654;2022-11-15T03:00:28;15.23;;;7.25;;
40433;SDS011;26146;51.114;5.654;2022-11-15T03:09:05;13.38;;;6.43;;
40433;SDS011;26146;51.114;5.654;2022-11-15T03:13:27;14.75;;;6.45;;
40433;SDS011;26146;51.114;5.654;2022-11-15T03:17:35;12.00;;;6.43;;
40433;SDS011;26146;51.114;5.654;2022-11-15T03:21:39;12.25;;;6.00;;
40433;SDS011;26146;51.114;5.654;2022-11-15T03:25:42;11.95;;;6.10;;
40433;SDS011;26146;51.114;5.654;2022-11-15T03:29:52;13.25;;;6.03;;
40433;SDS011;26146;51.114;5.654;2022-11-15T03:33:57;12.70;;;5.93;;
40433;SDS011;26146;51.114;5.654;2022-11-15T03:38:14;10.88;;;5.68;;
40433;SDS011;26146;51.114;5.654;2022-11-15T03:42:22;11.35;;;5.70;;
40433;SDS011;26146;51.114;5.654;2022-11-15T03:46:40;11.57;;;5.53;;
40433;SDS011;26146;51.114;5.654;2022-11-15T03:50:48;11.27;;;5.20;;
40433;SDS011;26146;51.114;5.654;2022-11-15T03:54:53;11.85;;;5.82;;
40433;SDS011;26146;51.114;5.654;2022-11-15T03:58:55;13.07;;;5.63;;
40433;SDS011;26146;51.114;5.654;2022-11-15T04:02:56;11.20;;;5.47;;
40433;SDS011;26146;51.114;5.654;2022-11-15T04:06:57;11.35;;;5.60;;
40433;SDS011;26146;51.114;5.654;2022-11-15T04:10:58;13.25;;;5.72;;
40433;SDS011;26146;51.114;5.654;2022-11-15T04:15:00;11.80;;;5.80;;
40433;SDS011;26146;51.114;5.654;2022-11-15T04:19:08;13.02;;;6.13;;
40433;SDS011;26146;51.114;5.654;2022-11-15T04:23:27;12.02;;;5.88;;
40433;SDS011;26146;51.114;5.654;2022-11-15T04:28:06;12.38;;;5.88;;
40433;SDS011;26146;51.114;5.654;2022-11-15T04:32:07;11.98;;;5.90;;
40433;SDS011;26146;51.114;5.654;2022-11-15T04:36:08;10.63;;;5.80;;
40433;SDS011;26146;51.114;5.654;2022-11-15T04:40:28;11.40;;;5.68;;
40433;SDS011;26146;51.114;5.654;2022-11-15T04:44:29;12.20;;;5.80;;
40433;SDS011;26146;51.114;5.654;2022-11-15T04:48:30;13.35;;;5.78;;
40433;SDS011;26146;51.114;5.654;2022-11-15T04:52:30;11.90;;;5.85;;
40433;SDS011;26146;51.114;5.654;2022-11-15T04:56:31;11.45;;;5.93;;
40433;SDS011;26146;51.114;5.654;2022-11-15T05:00:32;10.32;;;5.50;;
40433;SDS011;26146;51.114;5.654;2022-11-15T05:04:33;10.27;;;5.55;;
40433;SDS011;26146;51.114;5.654;2022-11-15T05:08:34;11.75;;;5.47;;
40433;SDS011;26146;51.114;5.654;2022-11-15T05:12:37;10.70;;;5.15;;
40433;SDS011;26146;51.114;5.654;2022-11-15T05:16:38;10.40;;;5.20;;
40433;SDS011;26146;51.114;5.654;2022-11-15T05:20:42;12.80;;;5.15;;
40433;SDS011;26146;51.114;5.654;2022-11-15T05:24:42;11.70;;;5.30;;
40433;SDS011;26146;51.114;5.654;2022-11-15T05:28:44;10.85;;;4.88;;
40433;SDS011;26146;51.114;5.654;2022-11-15T05:32:45;9.38;;;4.72;;
40433;SDS011;26146;51.114;5.654;2022-11-15T05:36:46;9.70;;;5.18;;
40433;SDS011;26146;51.114;5.654;2022-11-15T05:40:47;9.90;;;4.93;;
40433;SDS011;26146;51.114;5.654;2022-11-15T05:44:48;7.35;;;3.33;;
40433;SDS011;26146;51.114;5.654;2022-11-15T05:48:50;6.88;;;2.35;;
40433;SDS011;26146;51.114;5.654;2022-11-15T05:52:55;7.32;;;2.15;;
40433;SDS011;26146;51.114;5.654;2022-11-15T05:56:57;6.05;;;2.20;;
40433;SDS011;26146;51.114;5.654;2022-11-15T06:00:58;9.05;;;2.70;;
40433;SDS011;26146;51.114;5.654;2022-11-15T06:05:00;7.07;;;2.70;;
40433;SDS011;26146;51.114;5.654;2022-11-15T06:09:01;6.88;;;1.92;;
40433;SDS011;26146;51.114;5.654;2022-11-15T06:17:29;6.95;;;1.70;;
40433;SDS011;26146;51.114;5.654;2022-11-15T06:21:30;6.23;;;1.60;;
40433;SDS011;26146;51.114;5.654;2022-11-15T06:25:31;6.75;;;1.50;;
40433;SDS011;26146;51.114;5.654;2022-11-15T06:29:32;7.37;;;1.40;;
40433;SDS011;26146;51.114;5.654;2022-11-15T06:33:33;5.97;;;1.50;;
40433;SDS011;26146;51.114;5.654;2022-11-15T06:37:35;5.73;;;1.30;;
40433;SDS011;26146;51.114;5.654;2022-11-15T06:41:35;7.27;;;1.50;;
40433;SDS011;26146;51.114;5.654;2022-11-15T06:45:38;8.33;;;1.60;;
40433;SDS011;26146;51.114;5.654;2022-11-15T06:49:39;5.43;;;1.80;;
40433;SDS011;26146;51.114;5.654;2022-11-15T06:53:40;7.47;;;2.47;;
40433;SDS011;26146;51.114;5.654;2022-11-15T06:57:51;7.53;;;2.83;;
40433;SDS011;26146;51.114;5.654;2022-11-15T07:01:52;10.80;;;3.70;;
40433;SDS011;26146;51.114;5.654;2022-11-15T07:05:54;9.88;;;3.58;;
40433;SDS011;26146;51.114;5.654;2022-11-15T07:09:56;9.07;;;3.70;;
40433;SDS011;26146;51.114;5.654;2022-11-15T07:13:56;9.80;;;3.60;;
40433;SDS011;26146;51.114;5.654;2022-11-15T07:18:00;9.90;;;3.60;;
40433;SDS011;26146;51.114;5.654;2022-11-15T07:22:01;8.93;;;3.53;;
40433;SDS011;26146;51.114;5.654;2022-11-15T07:26:02;9.87;;;3.40;;
40433;SDS011;26146;51.114;5.654;2022-11-15T07:30:03;8.37;;;3.17;;
40433;SDS011;26146;51.114;5.654;2022-11-15T07:34:05;7.37;;;2.90;;
40433;SDS011;26146;51.114;5.654;2022-11-15T07:38:06;7.70;;;2.90;;
40433;SDS011;26146;51.114;5.654;2022-11-15T07:42:07;8.90;;;3.00;;
40433;SDS011;26146;51.114;5.654;2022-11-15T07:46:26;7.63;;;3.10;;
40433;SDS011;26146;51.114;5.654;2022-11-15T07:50:27;7.78;;;2.80;;
40433;SDS011;26146;51.114;5.654;2022-11-15T07:54:30;6.85;;;2.45;;
40433;SDS011;26146;51.114;5.654;2022-11-15T07:58:31;8.35;;;2.60;;
40433;SDS011;26146;51.114;5.654;2022-11-15T08:02:32;7.87;;;2.37;;
40433;SDS011;26146;51.114;5.654;2022-11-15T08:06:33;8.48;;;2.30;;
40433;SDS011;26146;51.114;5.654;2022-11-15T08:10:33;6.90;;;2.10;;
40433;SDS011;26146;51.114;5.654;2022-11-15T08:14:35;6.25;;;2.03;;
40433;SDS011;26146;51.114;5.654;2022-11-15T08:18:36;6.60;;;2.00;;
40433;SDS011;26146;51.114;5.654;2022-11-15T08:22:37;6.93;;;2.30;;
40433;SDS011;26146;51.114;5.654;2022-11-15T08:26:38;7.33;;;2.20;;
40433;SDS011;26146;51.114;5.654;2022-11-15T08:30:40;6.60;;;2.00;;
40433;SDS011;26146;51.114;5.654;2022-11-15T08:34:45;7.82;;;1.90;;
40433;SDS011;26146;51.114;5.654;2022-11-15T08:38:46;5.68;;;1.70;;
40433;SDS011;26146;51.114;5.654;2022-11-15T08:42:47;7.13;;;1.70;;
40433;SDS011;26146;51.114;5.654;2022-11-15T08:46:48;6.07;;;1.47;;
40433;SDS011;26146;51.114;5.654;2022-11-15T08:50:52;6.70;;;1.70;;
40433;SDS011;26146;51.114;5.654;2022-11-15T08:54:54;5.28;;;1.33;;
40433;SDS011;26146;51.114;5.654;2022-11-15T08:58:57;4.27;;;1.20;;
40433;SDS011;26146;51.114;5.654;2022-11-15T09:02:58;6.00;;;1.40;;
40433;SDS011;26146;51.114;5.654;2022-11-15T09:06:59;4.67;;;1.10;;
40433;SDS011;26146;51.114;5.654;2022-11-15T09:11:04;6.53;;;1.30;;
40433;SDS011;26146;51.114;5.654;2022-11-15T09:15:09;6.47;;;1.17;;
40433;SDS011;26146;51.114;5.654;2022-11-15T09:19:10;5.10;;;1.10;;
40433;SDS011;26146;51.114;5.654;2022-11-15T09:23:10;5.03;;;1.30;;
40433;SDS011;26146;51.114;5.654;2022-11-15T09:27:11;6.63;;;1.30;;
40433;SDS011;26146;51.114;5.654;2022-11-15T09:31:13;7.47;;;1.10;;
40433;SDS011;26146;51.114;5.654;2022-11-15T09:35:14;6.07;;;1.10;;
40433;SDS011;26146;51.114;5.654;2022-11-15T09:39:16;7.47;;;1.13;;
40433;SDS011;26146;51.114;5.654;2022-11-15T09:43:32;5.88;;;1.02;;
40433;SDS011;26146;51.114;5.654;2022-11-15T09:52:36;4.57;;;1.00;;
40433;SDS011;26146;51.114;5.654;2022-11-15T09:56:40;5.28;;;1.10;;
40433;SDS011;26146;51.114;5.654;2022-11-15T10:04:48;5.07;;;1.02;;
40433;SDS011;26146;51.114;5.654;2022-11-15T10:08:53;4.80;;;0.90;;
40433;SDS011;26146;51.114;5.654;2022-11-15T10:13:06;4.47;;;0.93;;
40433;SDS011;26146;51.114;5.654;2022-11-15T10:17:27;5.90;;;0.80;;
40433;SDS011;26146;51.114;5.654;2022-11-15T10:25:59;5.57;;;1.08;;
40433;SDS011;26146;51.114;5.654;2022-11-15T10:30:00;6.13;;;1.02;;
40433;SDS011;26146;51.114;5.654;2022-11-15T10:38:14;8.05;;;1.00;;
40433;SDS011;26146;51.114;5.654;2022-11-15T10:42:16;5.70;;;0.88;;
40433;SDS011;26146;51.114;5.654;2022-11-15T10:46:20;7.28;;;1.10;;
40433;SDS011;26146;51.114;5.654;2022-11-15T10:50:27;5.40;;;0.77;;
40433;SDS011;26146;51.114;5.654;2022-11-15T10:54:36;5.65;;;0.70;;
40433;SDS011;26146;51.114;5.654;2022-11-15T10:58:50;5.35;;;0.70;;
40433;SDS011;26146;51.114;5.654;2022-11-15T11:07:08;5.25;;;0.73;;
40433;SDS011;26146;51.114;5.654;2022-11-15T11:11:21;4.43;;;0.70;;
40433;SDS011;26146;51.114;5.654;2022-11-15T11:15:24;5.68;;;0.68;;
40433;SDS011;26146;51.114;5.654;2022-11-15T11:23:48;7.45;;;0.68;;
40433;SDS011;26146;51.114;5.654;2022-11-15T11:32:27;5.25;;;0.60;;
40433;SDS011;26146;51.114;5.654;2022-11-15T11:50:36;5.28;;;0.60;;
40433;SDS011;26146;51.114;5.654;2022-11-15T11:54:51;6.30;;;0.52;;
40433;SDS011;26146;51.114;5.654;2022-11-15T11:59:19;5.33;;;0.70;;
40433;SDS011;26146;51.114;5.654;2022-11-15T12:03:37;6.35;;;0.70;;
40433;SDS011;26146;51.114;5.654;2022-11-15T12:07:42;5.22;;;0.70;;
40433;SDS011;26146;51.114;5.654;2022-11-15T12:16:20;5.28;;;0.50;;
40433;SDS011;26146;51.114;5.654;2022-11-15T12:20:25;4.85;;;0.60;;
40433;SDS011;26146;51.114;5.654;2022-11-15T12:24:40;5.25;;;0.60;;
40433;SDS011;26146;51.114;5.654;2022-11-15T12:32:59;5.47;;;0.80;;
40433;SDS011;26146;51.114;5.654;2022-11-15T12:37:01;5.05;;;0.60;;
40433;SDS011;26146;51.114;5.654;2022-11-15T12:41:26;3.22;;;0.43;;
40433;SDS011;26146;51.114;5.654;2022-11-15T12:45:33;7.10;;;0.70;;
40433;SDS011;26146;51.114;5.654;2022-11-15T12:53:37;5.05;;;0.60;;
40433;SDS011;26146;51.114;5.654;2022-11-15T12:57:38;3.72;;;0.57;;
40433;SDS011;26146;51.114;5.654;2022-11-15T13:13:44;5.53;;;0.73;;
40433;SDS011;26146;51.114;5.654;2022-11-15T13:17:46;5.80;;;0.82;;
40433;SDS011;26146;51.114;5.654;2022-11-15T13:21:54;6.47;;;1.00;;
40433;SDS011;26146;51.114;5.654;2022-11-15T13:26:33;5.60;;;0.60;;
40433;SDS011;26146;51.114;5.654;2022-11-15T13:30:34;5.07;;;0.82;;
40433;SDS011;26146;51.114;5.654;2022-11-15T13:34:36;4.85;;;0.90;;
40433;SDS011;26146;51.114;5.654;2022-11-15T13:38:38;5.50;;;0.77;;
40433;SDS011;26146;51.114;5.654;2022-11-15T13:42:40;5.68;;;0.70;;
40433;SDS011;26146;51.114;5.654;2022-11-15T13:46:41;8.25;;;1.30;;
40433;SDS011;26146;51.114;5.654;2022-11-15T13:50:42;7.07;;;1.20;;
40433;SDS011;26146;51.114;5.654;2022-11-15T13:54:45;6.82;;;1.00;;
40433;SDS011;26146;51.114;5.654;2022-11-15T13:58:54;5.68;;;1.02;;
40433;SDS011;26146;51.114;5.654;2022-11-15T14:02:55;5.35;;;1.30;;
40433;SDS011;26146;51.114;5.654;2022-11-15T14:07:14;4.50;;;0.93;;
40433;SDS011;26146;51.114;5.654;2022-11-15T14:11:20;6.38;;;1.48;;
40433;SDS011;26146;51.114;5.654;2022-11-15T14:19:36;5.72;;;1.10;;
40433;SDS011;26146;51.114;5.654;2022-11-15T14:23:56;6.25;;;1.38;;
40433;SDS011;26146;51.114;5.654;2022-11-15T14:32:26;4.60;;;0.90;;
40433;SDS011;26146;51.114;5.654;2022-11-15T14:36:29;6.70;;;1.30;;
40433;SDS011;26146;51.114;5.654;2022-11-15T14:40:29;5.40;;;1.20;;
40433;SDS011;26146;51.114;5.654;2022-11-15T14:44:31;5.60;;;1.10;;
40433;SDS011;26146;51.114;5.654;2022-11-15T14:48:32;6.78;;;1.25;;
40433;SDS011;26146;51.114;5.654;2022-11-15T14:52:33;4.45;;;1.00;;
40433;SDS011;26146;51.114;5.654;2022-11-15T14:56:37;4.47;;;1.02;;
40433;SDS011;26146;51.114;5.654;2022-11-15T15:00:38;5.00;;;1.10;;
40433;SDS011;26146;51.114;5.654;2022-11-15T15:04:40;6.20;;;1.50;;
40433;SDS011;26146;51.114;5.654;2022-11-15T15:08:41;8.25;;;1.80;;
40433;SDS011;26146;51.114;5.654;2022-11-15T15:12:42;6.10;;;1.73;;
40433;SDS011;26146;51.114;5.654;2022-11-15T15:16:43;6.10;;;1.40;;
40433;SDS011;26146;51.114;5.654;2022-11-15T15:20:45;5.65;;;1.30;;
40433;SDS011;26146;51.114;5.654;2022-11-15T15:25:00;6.07;;;1.20;;
40433;SDS011;26146;51.114;5.654;2022-11-15T15:29:00;5.25;;;1.20;;
40433;SDS011;26146;51.114;5.654;2022-11-15T15:33:02;6.40;;;1.50;;
40433;SDS011;26146;51.114;5.654;2022-11-15T15:37:16;5.50;;;1.30;;
40433;SDS011;26146;51.114;5.654;2022-11-15T15:41:24;4.63;;;1.23;;
40433;SDS011;26146;51.114;5.654;2022-11-15T15:45:27;6.38;;;1.80;;
40433;SDS011;26146;51.114;5.654;2022-11-15T15:49:29;6.03;;;1.60;;
40433;SDS011;26146;51.114;5.654;2022-11-15T15:53:30;7.32;;;3.05;;
40433;SDS011;26146;51.114;5.654;2022-11-15T15:57:31;6.70;;;2.30;;
40433;SDS011;26146;51.114;5.654;2022-11-15T16:01:35;14.27;;;6.70;;
40433;SDS011;26146;51.114;5.654;2022-11-15T16:05:38;12.10;;;5.60;;
40433;SDS011;26146;51.114;5.654;2022-11-15T16:09:50;14.20;;;8.40;;
40433;SDS011;26146;51.114;5.654;2022-11-15T16:14:00;13.90;;;8.10;;
40433;SDS011;26146;51.114;5.654;2022-11-15T16:18:04;14.60;;;9.95;;
40433;SDS011;26146;51.114;5.654;2022-11-15T16:22:07;9.50;;;4.30;;
40433;SDS011;26146;51.114;5.654;2022-11-15T16:26:18;9.20;;;3.60;;
40433;SDS011;26146;51.114;5.654;2022-11-15T16:30:27;8.15;;;3.90;;
40433;SDS011;26146;51.114;5.654;2022-11-15T16:34:28;8.40;;;4.28;;
40433;SDS011;26146;51.114;5.654;2022-11-15T16:38:29;10.30;;;4.50;;
40433;SDS011;26146;51.114;5.654;2022-11-15T16:42:41;9.48;;;3.80;;
40433;SDS011;26146;51.114;5.654;2022-11-15T16:46:42;7.10;;;2.55;;
40433;SDS011;26146;51.114;5.654;2022-11-15T16:50:59;7.13;;;2.50;;
40433;SDS011;26146;51.114;5.654;2022-11-15T16:55:20;8.10;;;2.90;;
40433;SDS011;26146;51.114;5.654;2022-11-15T16:59:22;9.45;;;3.08;;
40433;SDS011;26146;51.114;5.654;2022-11-15T17:03:23;9.57;;;3.50;;
40433;SDS011;26146;51.114;5.654;2022-11-15T17:07:25;8.45;;;3.60;;
40433;SDS011;26146;51.114;5.654;2022-11-15T17:11:26;9.77;;;3.80;;
40433;SDS011;26146;51.114;5.654;2022-11-15T17:15:26;8.02;;;3.75;;
40433;SDS011;26146;51.114;5.654;2022-11-15T17:19:27;9.80;;;3.90;;
40433;SDS011;26146;51.114;5.654;2022-11-15T17:23:28;12.00;;;6.30;;
40433;SDS011;26146;51.114;5.654;2022-11-15T17:27:29;11.93;;;6.27;;
40433;SDS011;26146;51.114;5.654;2022-11-15T17:31:31;9.53;;;5.30;;
40433;SDS011;26146;51.114;5.654;2022-11-15T17:35:33;10.17;;;5.67;;
40433;SDS011;26146;51.114;5.654;2022-11-15T17:39:34;10.43;;;5.07;;
40433;SDS011;26146;51.114;5.654;2022-11-15T17:43:35;11.43;;;5.13;;
40433;SDS011;26146;51.114;5.654;2022-11-15T17:47:36;11.87;;;5.43;;
40433;SDS011;26146;51.114;5.654;2022-11-15T17:51:37;11.30;;;5.37;;
40433;SDS011;26146;51.114;5.654;2022-11-15T17:55:38;10.43;;;5.00;;
40433;SDS011;26146;51.114;5.654;2022-11-15T17:59:39;11.43;;;5.70;;
40433;SDS011;26146;51.114;5.654;2022-11-15T18:03:40;12.70;;;6.20;;
40433;SDS011;26146;51.114;5.654;2022-11-15T18:07:41;11.17;;;4.93;;
40433;SDS011;26146;51.114;5.654;2022-11-15T18:11:42;10.20;;;5.37;;
40433;SDS011;26146;51.114;5.654;2022-11-15T18:15:48;11.20;;;6.30;;
40433;SDS011;26146;51.114;5.654;2022-11-15T18:19:54;12.05;;;6.45;;
40433;SDS011;26146;51.114;5.654;2022-11-15T18:23:56;12.20;;;6.40;;
40433;SDS011;26146;51.114;5.654;2022-11-15T18:27:58;15.53;;;9.57;;
40433;SDS011;26146;51.114;5.654;2022-11-15T18:31:59;17.33;;;9.23;;
40433;SDS011;26146;51.114;5.654;2022-11-15T18:36:05;15.40;;;8.55;;
40433;SDS011;26146;51.114;5.654;2022-11-15T18:40:07;21.33;;;12.57;;
40433;SDS011;26146;51.114;5.654;2022-11-15T18:44:09;19.67;;;11.87;;
40433;SDS011;26146;51.114;5.654;2022-11-15T18:48:12;13.83;;;8.57;;
40433;SDS011;26146;51.114;5.654;2022-11-15T18:52:13;18.43;;;8.47;;
40433;SDS011;26146;51.114;5.654;2022-11-15T18:56:15;15.23;;;8.50;;
40433;SDS011;26146;51.114;5.654;2022-11-15T19:00:18;16.60;;;8.70;;
40433;SDS011;26146;51.114;5.654;2022-11-15T19:04:19;12.60;;;7.30;;
40433;SDS011;26146;51.114;5.654;2022-11-15T19:08:21;31.10;;;19.07;;
40433;SDS011;26146;51.114;5.654;2022-11-15T19:12:22;14.53;;;9.20;;
40433;SDS011;26146;51.114;5.654;2022-11-15T19:16:23;17.57;;;9.70;;
40433;SDS011;26146;51.114;5.654;2022-11-15T19:24:57;15.03;;;8.97;;
40433;SDS011;26146;51.114;5.654;2022-11-15T19:28:59;20.63;;;12.10;;
40433;SDS011;26146;51.114;5.654;2022-11-15T19:33:01;15.60;;;8.97;;
40433;SDS011;26146;51.114;5.654;2022-11-15T19:37:01;13.98;;;8.82;;
40433;SDS011;26146;51.114;5.654;2022-11-15T19:41:03;15.80;;;8.40;;
40433;SDS011;26146;51.114;5.654;2022-11-15T19:45:05;15.10;;;8.80;;
40433;SDS011;26146;51.114;5.654;2022-11-15T19:49:07;14.60;;;8.40;;
40433;SDS011;26146;51.114;5.654;2022-11-15T19:53:09;12.97;;;8.07;;
40433;SDS011;26146;51.114;5.654;2022-11-15T19:57:10;12.73;;;7.27;;
40433;SDS011;26146;51.114;5.654;2022-11-15T20:01:18;16.10;;;8.60;;
40433;SDS011;26146;51.114;5.654;2022-11-15T20:05:21;14.63;;;8.37;;
40433;SDS011;26146;51.114;5.654;2022-11-15T20:09:22;12.03;;;7.50;;
40433;SDS011;26146;51.114;5.654;2022-11-15T20:13:25;15.33;;;8.37;;
40433;SDS011;26146;51.114;5.654;2022-11-15T20:17:26;14.63;;;8.40;;
40433;SDS011;26146;51.114;5.654;2022-11-15T20:21:27;15.70;;;8.97;;
40433;SDS011;26146;51.114;5.654;2022-11-15T20:25:29;14.00;;;8.40;;
40433;SDS011;26146;51.114;5.654;2022-11-15T20:29:30;15.43;;;9.70;;
40433;SDS011;26146;51.114;5.654;2022-11-15T20:33:31;14.53;;;8.90;;
40433;SDS011;26146;51.114;5.654;2022-11-15T20:37:32;16.03;;;9.43;;
40433;SDS011;26146;51.114;5.654;2022-11-15T20:41:34;15.43;;;9.07;;
40433;SDS011;26146;51.114;5.654;2022-11-15T20:45:34;17.77;;;9.30;;
40433;SDS011;26146;51.114;5.654;2022-11-15T20:49:35;19.47;;;10.50;;
40433;SDS011;26146;51.114;5.654;2022-11-15T20:53:39;16.63;;;10.30;;
40433;SDS011;26146;51.114;5.654;2022-11-15T20:57:41;16.50;;;10.13;;
40433;SDS011;26146;51.114;5.654;2022-11-15T21:01:42;16.37;;;9.37;;
40433;SDS011;26146;51.114;5.654;2022-11-15T21:05:46;15.13;;;9.43;;
40433;SDS011;26146;51.114;5.654;2022-11-15T21:09:47;15.68;;;9.57;;
40433;SDS011;26146;51.114;5.654;2022-11-15T21:14:07;14.20;;;8.55;;
40433;SDS011;26146;51.114;5.654;2022-11-15T21:18:08;20.60;;;11.35;;
40433;SDS011;26146;51.114;5.654;2022-11-15T21:22:11;21.13;;;10.75;;
40433;SDS011;26146;51.114;5.654;2022-11-15T21:26:13;15.00;;;8.63;;
40433;SDS011;26146;51.114;5.654;2022-11-15T21:30:14;14.15;;;8.90;;
40433;SDS011;26146;51.114;5.654;2022-11-15T21:34:15;18.40;;;10.80;;
40433;SDS011;26146;51.114;5.654;2022-11-15T21:38:16;15.93;;;9.87;;
40433;SDS011;26146;51.114;5.654;2022-11-15T21:42:17;16.77;;;9.40;;
40433;SDS011;26146;51.114;5.654;2022-11-15T21:46:18;14.10;;;9.10;;
40433;SDS011;26146;51.114;5.654;2022-11-15T21:50:19;14.55;;;9.43;;
40433;SDS011;26146;51.114;5.654;2022-11-15T21:54:20;15.45;;;8.57;;
40433;SDS011;26146;51.114;5.654;2022-11-15T21:58:22;14.80;;;8.80;;
40433;SDS011;26146;51.114;5.654;2022-11-15T22:02:23;14.63;;;8.70;;
40433;SDS011;26146;51.114;5.654;2022-11-15T22:06:24;15.40;;;8.80;;
40433;SDS011;26146;51.114;5.654;2022-11-15T22:10:25;14.88;;;8.75;;
40433;SDS011;26146;51.114;5.654;2022-11-15T22:14:26;14.95;;;8.60;;
40433;SDS011;26146;51.114;5.654;2022-11-15T22:18:29;15.57;;;8.57;;
40433;SDS011;26146;51.114;5.654;2022-11-15T22:22:30;12.82;;;8.10;;
40433;SDS011;26146;51.114;5.654;2022-11-15T22:26:31;13.32;;;8.10;;
40433;SDS011;26146;51.114;5.654;2022-11-15T22:30:32;13.60;;;8.43;;
40433;SDS011;26146;51.114;5.654;2022-11-15T22:34:33;13.52;;;8.07;;
40433;SDS011;26146;51.114;5.654;2022-11-15T22:38:34;14.97;;;8.13;;
40433;SDS011;26146;51.114;5.654;2022-11-15T22:42:34;13.68;;;7.82;;
40433;SDS011;26146;51.114;5.654;2022-11-15T22:46:35;13.40;;;7.72;;
40433;SDS011;26146;51.114;5.654;2022-11-15T22:50:36;14.33;;;8.37;;
40433;SDS011;26146;51.114;5.654;2022-11-15T22:54:37;14.63;;;8.77;;
40433;SDS011;26146;51.114;5.654;2022-11-15T22:58:38;14.13;;;8.07;;
40433;SDS011;26146;51.114;5.654;2022-11-15T23:02:39;13.65;;;8.10;;
40433;SDS011;26146;51.114;5.654;2022-11-15T23:06:41;13.57;;;8.63;;
40433;SDS011;26146;51.114;5.654;2022-11-15T23:10:42;14.38;;;8.85;;
40433;SDS011;26146;51.114;5.654;2022-11-15T23:15:01;14.80;;;8.55;;
40433;SDS011;26146;51.114;5.654;2022-11-15T23:19:04;14.10;;;8.07;;
40433;SDS011;26146;51.114;5.654;2022-11-15T23:23:07;13.55;;;8.13;;
40433;SDS011;26146;51.114;5.654;2022-11-15T23:27:08;14.93;;;8.60;;
40433;SDS011;26146;51.114;5.654;2022-11-15T23:31:09;16.55;;;8.40;;
40433;SDS011;26146;51.114;5.654;2022-11-15T23:35:29;15.57;;;8.98;;
40433;SDS011;26146;51.114;5.654;2022-11-15T23:39:30;14.75;;;7.88;;
40433;SDS011;26146;51.114;5.654;2022-11-15T23:43:31;16.10;;;8.40;;
40433;SDS011;26146;51.114;5.654;2022-11-15T23:47:32;14.93;;;8.13;;
40433;SDS011;26146;51.114;5.654;2022-11-15T23:51:33;13.00;;;7.43;;
40433;SDS011;26146;51.114;5.654;2022-11-15T23:55:34;14.25;;;7.57;;
40433;SDS011;26146;51.114;5.654;2022-11-15T23:59:35;12.90;;;6.85;;
